Time;durP1;ratioP1;P1;durP2;ratioP2;P2;SDS_P1;SDS_P2;PMS_P1;PMS_P2;Temp;Humidity;BMP_temperature;BMP_pressure;BME280_temperature;BME280_humidity;BME280_pressure;Samples;Min_cycle;Max_cycle;Signal;HPM_P1;HPM_P2
2022/10/09 00:01:15;;;;;;;4.85;3.00;;;17.50;99.90;;;;;;4592583;19;20066;-35
2022/10/09 00:02:47;;;;;;;5.25;3.05;;;17.50;99.90;;;;;;4592813;19;20448;-40
2022/10/09 00:04:18;;;;;;;5.22;3.05;;;17.50;99.90;;;;;;4592506;19;20011;-35
2022/10/09 00:05:49;;;;;;;5.85;3.03;;;17.50;99.90;;;;;;4592532;19;20052;-34
2022/10/09 00:07:20;;;;;;;4.32;2.80;;;17.50;99.90;;;;;;4593023;19;20010;-34
2022/10/09 00:08:51;;;;;;;4.63;2.45;;;17.50;99.90;;;;;;4592684;19;20003;-34
2022/10/09 00:10:22;;;;;;;4.47;2.10;;;17.50;99.90;;;;;;4592459;19;20026;-39
2022/10/09 00:11:54;;;;;;;5.05;2.30;;;17.50;99.90;;;;;;4593038;19;20462;-36
2022/10/09 00:13:25;;;;;;;5.43;3.00;;;17.50;99.90;;;;;;4592567;19;20091;-37
2022/10/09 00:14:57;;;;;;;6.47;4.32;;;17.50;99.90;;;;;;4591896;19;20016;-37
2022/10/09 00:16:30;;;;;;;6.85;4.55;;;17.50;99.90;;;;;;4591791;19;20014;-35
2022/10/09 00:18:01;;;;;;;5.20;2.83;;;17.50;99.90;;;;;;4592934;19;20007;-34
2022/10/09 00:19:32;;;;;;;5.95;3.05;;;17.50;99.90;;;;;;4594169;19;20021;-36
2022/10/09 00:21:04;;;;;;;5.68;3.58;;;17.50;99.90;;;;;;4592037;19;20029;-33
2022/10/09 00:22:35;;;;;;;;;;;17.50;99.90;;;;;;4593387;19;20452;-39
2022/10/09 00:24:06;;;;;;;6.55;2.67;;;17.50;99.90;;;;;;4592337;19;19968;-39
2022/10/09 00:25:38;;;;;;;4.07;2.30;;;17.50;99.90;;;;;;4592794;19;20449;-37
2022/10/09 00:27:09;;;;;;;6.38;3.22;;;17.50;99.90;;;;;;4592101;19;20062;-34
2022/10/09 00:28:40;;;;;;;4.53;2.63;;;17.50;99.90;;;;;;4591726;19;20484;-34
2022/10/09 00:30:11;;;;;;;4.97;2.33;;;17.50;99.90;;;;;;4592497;19;20441;-42
2022/10/09 00:31:42;;;;;;;4.70;2.13;;;17.50;99.90;;;;;;4592298;19;20337;-37
2022/10/09 00:33:14;;;;;;;3.78;1.98;;;17.50;99.90;;;;;;4592072;19;20066;-37
2022/10/09 00:34:45;;;;;;;4.65;2.00;;;17.40;99.90;;;;;;4592387;19;20017;-34
2022/10/09 00:36:20;;;;;;;6.03;3.05;;;17.50;99.90;;;;;;4591099;19;20013;-39
2022/10/09 00:37:52;;;;;;;4.63;2.65;;;17.50;99.90;;;;;;4592181;19;20070;-36
2022/10/09 00:39:23;;;;;;;3.75;1.88;;;17.40;99.90;;;;;;4591436;19;20014;-33
2022/10/09 00:40:54;;;;;;;4.32;2.33;;;17.40;99.90;;;;;;4591959;19;20504;-35
2022/10/09 00:42:26;;;;;;;3.90;1.83;;;17.40;99.90;;;;;;4592097;19;20338;-37
2022/10/09 00:43:58;;;;;;;4.72;2.50;;;17.40;99.90;;;;;;4591663;19;20043;-40
2022/10/09 00:45:29;;;;;;;4.15;2.00;;;17.40;99.90;;;;;;4590683;19;20006;-38
2022/10/09 00:47:00;;;;;;;4.07;2.13;;;17.40;99.90;;;;;;4589586;19;20015;-39
2022/10/09 00:48:32;;;;;;;4.20;1.90;;;17.40;99.90;;;;;;4590215;19;20014;-40
2022/10/09 00:50:29;;;;;;;;;;;17.40;99.90;;;;;;4592554;19;20074;-34
2022/10/09 00:52:02;;;;;;;4.07;2.70;;;17.40;99.90;;;;;;4590251;19;19926;-35
2022/10/09 00:53:33;;;;;;;4.60;2.80;;;17.40;99.90;;;;;;4590817;19;20328;-35
2022/10/09 00:55:05;;;;;;;5.28;2.80;;;17.40;99.90;;;;;;4590341;19;20024;-36
2022/10/09 00:56:36;;;;;;;4.35;2.20;;;17.40;99.90;;;;;;4590914;19;20083;-34
2022/10/09 00:58:07;;;;;;;5.32;2.05;;;17.40;99.90;;;;;;4591366;19;20010;-39
2022/10/09 00:59:38;;;;;;;4.60;2.10;;;17.40;99.90;;;;;;4591621;19;20017;-37
2022/10/09 01:01:09;;;;;;;5.85;1.92;;;17.40;99.90;;;;;;4591695;19;20015;-38
2022/10/09 01:02:40;;;;;;;4.90;2.13;;;17.40;99.90;;;;;;4591293;19;20469;-42
2022/10/09 01:04:11;;;;;;;4.28;1.98;;;17.40;99.90;;;;;;4591445;19;20014;-37
2022/10/09 01:06:07;;;;;;;3.85;2.13;;;17.40;99.90;;;;;;4591774;19;20022;-34
2022/10/09 01:07:51;;;;;;;5.05;1.90;;;17.40;99.90;;;;;;4591998;19;20011;-35
2022/10/09 01:09:26;;;;;;;4.60;2.28;;;17.40;99.90;;;;;;4590163;19;20467;-39
2022/10/09 01:11:29;;;;;;;4.40;1.98;;;17.40;99.90;;;;;;4590155;19;20023;-34
2022/10/09 01:13:08;;;;;;;4.10;1.90;;;17.40;99.90;;;;;;4588942;19;20018;-33
2022/10/09 01:14:50;;;;;;;4.43;1.77;;;17.40;99.90;;;;;;4589092;19;20459;-36
2022/10/09 01:16:27;;;;;;;4.80;2.15;;;17.40;99.90;;;;;;4589577;19;20026;-33
2022/10/09 01:18:37;;;;;;;3.88;1.83;;;17.40;99.90;;;;;;4589317;19;20062;-36
2022/10/09 01:20:25;;;;;;;3.47;1.98;;;17.40;99.90;;;;;;4588521;19;20078;-37
2022/10/09 01:22:21;;;;;;;4.57;2.00;;;17.40;99.90;;;;;;4589267;19;20006;-40
2022/10/09 01:24:53;;;;;;;4.82;2.13;;;17.40;99.90;;;;;;4589219;19;20019;-36
2022/10/09 01:26:42;;;;;;;3.28;1.80;;;17.40;99.90;;;;;;4589128;19;20036;-34
2022/10/09 01:28:13;;;;;;;3.40;1.52;;;17.40;99.90;;;;;;4588655;19;20011;-33
2022/10/09 01:29:51;;;;;;;3.50;1.83;;;17.40;99.90;;;;;;4588506;19;20085;-35
2022/10/09 01:31:22;;;;;;;5.07;2.00;;;17.40;99.90;;;;;;4588244;19;20496;-40
2022/10/09 01:32:53;;;;;;;6.38;2.20;;;17.40;99.90;;;;;;4588709;19;20134;-39
2022/10/09 01:34:24;;;;;;;4.10;1.95;;;17.40;99.90;;;;;;4588928;19;20024;-40
2022/10/09 01:35:56;;;;;;;4.32;1.50;;;17.40;99.90;;;;;;4587325;19;20007;-34
2022/10/09 01:37:28;;;;;;;3.30;1.65;;;17.30;99.90;;;;;;4588144;19;20019;-34
2022/10/09 01:38:59;;;;;;;;;;;17.40;99.90;;;;;;4589398;19;20404;-37
2022/10/09 01:40:30;;;;;;;4.55;2.05;;;17.40;99.90;;;;;;4588473;19;19912;-34
2022/10/09 01:42:01;;;;;;;4.60;1.90;;;17.40;99.90;;;;;;4588359;19;20014;-39
2022/10/09 01:43:32;;;;;;;3.67;1.88;;;17.30;99.90;;;;;;4588482;19;20011;-36
2022/10/09 01:45:04;;;;;;;4.65;1.95;;;17.40;99.90;;;;;;4588441;19;20017;-33
2022/10/09 01:46:35;;;;;;;;;;;17.30;99.90;;;;;;4589386;19;20029;-33
2022/10/09 01:48:08;;;;;;;5.10;2.35;;;17.40;99.90;;;;;;4588245;19;20373;-34
2022/10/09 01:49:42;;;;;;;4.25;1.90;;;17.30;99.90;;;;;;4588122;19;20010;-35
2022/10/09 01:51:13;;;;;;;5.47;2.20;;;17.30;99.90;;;;;;4587406;19;20059;-32
2022/10/09 01:52:50;;;;;;;5.40;2.33;;;17.40;99.90;;;;;;4588122;19;20019;-35
2022/10/09 01:54:50;;;;;;;4.63;2.10;;;17.40;99.90;;;;;;4588009;19;20011;-39
2022/10/09 01:56:21;;;;;;;3.88;2.25;;;17.30;99.90;;;;;;4586443;19;20450;-33
2022/10/09 01:58:13;;;;;;;2.35;1.40;;;17.40;99.90;;;;;;4587893;19;20036;-36
2022/10/09 01:59:44;;;;;;;5.47;2.35;;;17.30;99.90;;;;;;4591663;19;20401;-43
2022/10/09 02:01:21;;;;;;;5.18;2.30;;;17.30;99.90;;;;;;4592553;19;20373;-35
2022/10/09 02:02:52;;;;;;;4.72;2.25;;;17.30;99.90;;;;;;4592590;19;20074;-33
2022/10/09 02:04:23;;;;;;;6.03;2.22;;;17.30;99.90;;;;;;4592694;19;20114;-37
2022/10/09 02:05:54;;;;;;;5.95;2.13;;;17.30;99.90;;;;;;4593129;19;20014;-33
2022/10/09 02:07:25;;;;;;;4.53;2.20;;;17.30;99.90;;;;;;4592687;19;20023;-34
2022/10/09 02:08:56;;;;;;;4.57;2.10;;;17.30;99.90;;;;;;4592513;19;20216;-39
2022/10/09 02:10:28;;;;;;;5.03;2.80;;;17.30;99.90;;;;;;4592638;19;20094;-41
2022/10/09 02:12:00;;;;;;;4.90;2.30;;;17.40;99.90;;;;;;4592997;19;20036;-37
2022/10/09 02:13:31;;;;;;;4.72;2.53;;;17.30;99.90;;;;;;4592213;19;20040;-36
2022/10/09 02:15:02;;;;;;;;;;;17.40;99.90;;;;;;4593245;19;20579;-38
2022/10/09 02:16:46;;;;;;;3.72;1.85;;;17.30;99.90;;;;;;4592728;19;19936;-35
2022/10/09 02:18:57;;;;;;;4.80;2.45;;;17.40;99.90;;;;;;4592485;19;20019;-38
2022/10/09 02:20:33;;;;;;;3.45;1.90;;;17.30;99.90;;;;;;4591868;19;20039;-38
2022/10/09 02:22:09;;;;;;;4.60;2.50;;;17.30;99.90;;;;;;4592502;19;19994;-35
2022/10/09 02:23:40;;;;;;;4.88;2.40;;;17.30;99.90;;;;;;4592248;19;20015;-38
2022/10/09 02:25:11;;;;;;;4.13;2.60;;;17.30;99.90;;;;;;4590283;19;20011;-38
2022/10/09 02:26:42;;;;;;;5.30;3.03;;;17.30;99.90;;;;;;4592397;19;20031;-33
2022/10/09 02:28:14;;;;;;;3.97;2.38;;;17.40;99.90;;;;;;4592431;19;20010;-33
2022/10/09 02:29:45;;;;;;;3.40;1.90;;;17.30;99.90;;;;;;4592463;19;20497;-32
2022/10/09 02:31:23;;;;;;;4.25;2.28;;;17.30;99.90;;;;;;4592104;19;20032;-39
2022/10/09 02:32:55;;;;;;;4.65;2.15;;;17.30;99.90;;;;;;4592208;19;20014;-35
2022/10/09 02:34:26;;;;;;;4.82;2.35;;;17.30;99.90;;;;;;4592093;19;20128;-37
2022/10/09 02:35:57;;;;;;;5.90;2.10;;;17.30;99.90;;;;;;4591314;19;20011;-36
2022/10/09 02:37:29;;;;;;;4.30;2.05;;;17.30;99.90;;;;;;4592995;19;20017;-35
2022/10/09 02:39:01;;;;;;;3.88;2.10;;;17.30;99.90;;;;;;4594396;19;20010;-34
2022/10/09 02:40:32;;;;;;;4.47;2.20;;;17.30;99.90;;;;;;4594128;19;20345;-35
2022/10/09 02:42:03;;;;;;;4.07;2.20;;;17.30;99.90;;;;;;4594551;19;20024;-40
2022/10/09 02:43:34;;;;;;;3.92;2.25;;;17.30;99.90;;;;;;4594397;19;20010;-36
2022/10/09 02:45:07;;;;;;;4.28;2.17;;;17.30;99.90;;;;;;4595290;19;20018;-39
2022/10/09 02:46:38;;;;;;;3.85;2.30;;;17.30;99.90;;;;;;4594025;19;20473;-35
2022/10/09 02:48:09;;;;;;;4.97;2.45;;;17.30;99.90;;;;;;4594222;19;20018;-38
2022/10/09 02:49:40;;;;;;;4.63;2.33;;;17.30;99.90;;;;;;4594174;19;20326;-39
2022/10/09 02:51:12;;;;;;;5.25;2.20;;;17.30;99.90;;;;;;4593260;19;20022;-34
2022/10/09 02:52:43;;;;;;;6.00;2.70;;;17.40;99.90;;;;;;4594227;19;20010;-37
2022/10/09 02:54:14;;;;;;;3.80;2.15;;;17.40;99.90;;;;;;4593902;19;20010;-33
2022/10/09 02:55:45;;;;;;;3.53;2.35;;;17.30;99.90;;;;;;4593782;19;20455;-34
2022/10/09 02:57:16;;;;;;;6.25;2.03;;;17.30;99.90;;;;;;4593880;19;20014;-33
2022/10/09 02:58:48;;;;;;;3.85;1.75;;;17.30;99.90;;;;;;4593936;19;20014;-41
2022/10/09 03:00:19;;;;;;;2.90;1.50;;;17.30;99.90;;;;;;4594257;19;20007;-36
2022/10/09 03:01:50;;;;;;;4.43;2.00;;;17.40;99.90;;;;;;4594113;19;20019;-38
2022/10/09 03:03:21;;;;;;;5.28;1.88;;;17.40;99.90;;;;;;4593989;19;20313;-43
2022/10/09 03:04:52;;;;;;;4.63;2.15;;;17.30;99.90;;;;;;4593949;19;20052;-35
2022/10/09 03:06:24;;;;;;;2.67;1.73;;;17.30;99.90;;;;;;4594426;19;20325;-35
2022/10/09 03:07:55;;;;;;;4.22;1.80;;;17.30;99.90;;;;;;4594374;19;20025;-34
2022/10/09 03:09:27;;;;;;;3.53;1.73;;;17.40;99.90;;;;;;4593775;19;20444;-41
2022/10/09 03:10:59;;;;;;;4.22;2.60;;;17.30;99.90;;;;;;4591725;19;20041;-35
2022/10/09 03:12:30;;;;;;;4.68;1.90;;;17.30;99.90;;;;;;4593793;19;20015;-37
2022/10/09 03:14:01;;;;;;;6.22;3.15;;;17.40;99.90;;;;;;4593528;19;20015;-37
2022/10/09 03:15:35;;;;;;;5.13;2.40;;;17.40;99.90;;;;;;4593269;19;20011;-39
2022/10/09 03:17:07;;;;;;;3.47;2.05;;;17.30;99.90;;;;;;4594281;19;20492;-35
2022/10/09 03:18:38;;;;;;;5.78;2.58;;;17.30;99.90;;;;;;4594167;19;20014;-36
2022/10/09 03:20:09;;;;;;;4.80;2.47;;;17.30;99.90;;;;;;4594431;19;20467;-34
2022/10/09 03:21:40;;;;;;;6.20;2.90;;;17.30;99.90;;;;;;4593291;19;20011;-38
2022/10/09 03:23:12;;;;;;;3.53;2.13;;;17.40;99.90;;;;;;4593653;19;20360;-40
2022/10/09 03:24:43;;;;;;;4.00;2.25;;;17.30;99.90;;;;;;4592860;19;20010;-39
2022/10/09 03:26:16;;;;;;;3.95;1.77;;;17.30;99.90;;;;;;4593341;19;20018;-33
2022/10/09 03:27:47;;;;;;;4.70;2.03;;;17.30;99.90;;;;;;4593612;19;20006;-39
2022/10/09 03:29:18;;;;;;;4.82;2.00;;;17.40;99.90;;;;;;4593531;19;20455;-34
2022/10/09 03:30:49;;;;;;;3.22;1.88;;;17.40;99.90;;;;;;4593530;19;20089;-38
2022/10/09 03:32:20;;;;;;;4.65;2.20;;;17.40;99.90;;;;;;4593280;19;20018;-37
2022/10/09 03:33:52;;;;;;;4.95;2.13;;;17.30;99.90;;;;;;4593103;19;20038;-36
2022/10/09 03:35:23;;;;;;;3.05;1.83;;;17.30;99.90;;;;;;4591968;19;20007;-36
2022/10/09 03:36:54;;;;;;;4.15;1.70;;;17.30;99.90;;;;;;4592633;19;20314;-39
2022/10/09 03:38:26;;;;;;;4.22;2.15;;;17.40;99.90;;;;;;4592167;19;20006;-35
2022/10/09 03:39:57;;;;;;;5.28;2.28;;;17.30;99.90;;;;;;4593085;19;20062;-36
2022/10/09 03:41:29;;;;;;;3.58;1.98;;;17.30;99.90;;;;;;4593321;19;20409;-34
2022/10/09 03:43:00;;;;;;;4.72;1.98;;;17.30;99.90;;;;;;4592886;19;20002;-37
2022/10/09 03:44:30;;;;;;;3.78;2.22;;;17.30;99.90;;;;;;4593467;19;20010;-34
2022/10/09 03:46:06;;;;;;;4.50;2.47;;;17.30;99.90;;;;;;4593108;19;20082;-36
2022/10/09 03:47:37;;;;;;;6.53;3.20;;;17.30;99.90;;;;;;4593228;19;20338;-35
2022/10/09 03:49:08;;;;;;;5.18;2.20;;;17.30;99.90;;;;;;4592683;19;20006;-34
2022/10/09 03:50:39;;;;;;;6.45;2.63;;;17.30;99.90;;;;;;4593199;19;20062;-35
2022/10/09 03:52:10;;;;;;;6.20;3.20;;;17.30;99.90;;;;;;4592912;19;20011;-33
2022/10/09 03:53:41;;;;;;;4.88;2.80;;;17.30;99.90;;;;;;4593089;19;20018;-43
2022/10/09 03:55:13;;;;;;;5.32;2.72;;;17.30;99.90;;;;;;4592367;19;20476;-36
2022/10/09 03:56:44;;;;;;;3.85;2.42;;;17.30;99.90;;;;;;4593157;19;20017;-36
2022/10/09 03:58:15;;;;;;;5.65;2.15;;;17.20;99.90;;;;;;4593118;19;20015;-33
2022/10/09 03:59:46;;;;;;;3.78;2.30;;;17.30;99.90;;;;;;4592528;19;20182;-34
2022/10/09 04:01:18;;;;;;;4.72;2.60;;;17.20;99.90;;;;;;4592789;19;20014;-34
2022/10/09 04:02:49;;;;;;;6.35;2.50;;;17.30;99.90;;;;;;4592556;19;20011;-37
2022/10/09 04:04:20;;;;;;;5.13;3.05;;;17.30;99.90;;;;;;4592414;19;20062;-42
2022/10/09 04:05:52;;;;;;;5.95;2.92;;;17.30;99.90;;;;;;4592546;19;20026;-35
2022/10/09 04:07:23;;;;;;;4.78;2.65;;;17.20;99.90;;;;;;4593024;19;20010;-33
2022/10/09 04:08:55;;;;;;;4.63;2.40;;;17.20;99.90;;;;;;4592604;19;20038;-34
2022/10/09 04:10:26;;;;;;;4.30;2.55;;;17.10;99.90;;;;;;4593106;19;20006;-38
2022/10/09 04:11:57;;;;;;;6.00;3.08;;;17.10;99.90;;;;;;4592448;19;20014;-36
2022/10/09 04:13:28;;;;;;;4.80;2.53;;;17.10;99.90;;;;;;4592848;19;20322;-37
2022/10/09 04:14:59;;;;;;;4.20;2.42;;;17.10;99.90;;;;;;4592607;19;20040;-34
2022/10/09 04:16:31;;;;;;;3.25;2.05;;;17.10;99.90;;;;;;4591839;19;20042;-37
2022/10/09 04:18:02;;;;;;;5.65;2.70;;;17.20;99.90;;;;;;4592128;19;20010;-35
2022/10/09 04:19:34;;;;;;;4.75;3.08;;;17.20;99.90;;;;;;4592910;19;20334;-37
2022/10/09 04:21:05;;;;;;;6.38;3.33;;;17.20;99.90;;;;;;4592846;19;20039;-38
2022/10/09 04:22:36;;;;;;;7.10;3.33;;;17.20;99.90;;;;;;4589213;19;20421;-41
2022/10/09 04:24:07;;;;;;;4.47;2.33;;;17.20;99.90;;;;;;4587625;19;20025;-35
2022/10/09 04:25:38;;;;;;;3.83;2.22;;;17.20;99.90;;;;;;4591246;19;20015;-35
2022/10/09 04:27:09;;;;;;;4.00;2.45;;;17.20;99.90;;;;;;4592619;19;20014;-40
2022/10/09 04:28:40;;;;;;;4.82;2.15;;;17.10;99.90;;;;;;4592856;19;20014;-35
2022/10/09 04:30:12;;;;;;;4.70;2.20;;;17.20;99.90;;;;;;4588754;19;20015;-39
2022/10/09 04:31:43;;;;;;;5.00;2.10;;;17.20;99.90;;;;;;4591705;19;20341;-33
2022/10/09 04:33:14;;;;;;;5.30;2.08;;;17.20;99.90;;;;;;4592695;19;20456;-35
2022/10/09 04:34:45;;;;;;;4.03;2.17;;;17.20;99.90;;;;;;4591355;19;20021;-39
2022/10/09 04:36:17;;;;;;;7.00;2.55;;;17.20;99.90;;;;;;4590942;19;20018;-36
2022/10/09 04:37:48;;;;;;;5.25;2.55;;;17.20;99.90;;;;;;4591743;19;20023;-36
2022/10/09 04:39:19;;;;;;;5.70;3.30;;;17.20;99.90;;;;;;4591171;19;20017;-34
2022/10/09 04:41:04;;;;;;;5.00;2.72;;;17.30;99.90;;;;;;4592009;19;20019;-38
2022/10/09 04:42:36;;;;;;;3.35;2.30;;;17.20;99.90;;;;;;4590732;19;20023;-33
2022/10/09 04:44:07;;;;;;;3.85;2.20;;;17.20;99.90;;;;;;4592344;19;20018;-39
2022/10/09 04:45:38;;;;;;;4.22;2.13;;;17.30;99.90;;;;;;4591096;19;20014;-38
2022/10/09 04:47:09;;;;;;;6.88;2.47;;;17.20;99.90;;;;;;4591274;19;20073;-33
2022/10/09 04:48:42;;;;;;;5.05;3.08;;;17.30;99.90;;;;;;4590298;19;20448;-32
2022/10/09 04:50:14;;;;;;;4.43;2.20;;;17.30;99.90;;;;;;4592666;19;20010;-38
2022/10/09 04:51:45;;;;;;;;;;;17.20;99.90;;;;;;4591455;19;20038;-43
2022/10/09 04:53:16;;;;;;;4.97;3.03;;;17.20;99.90;;;;;;4592506;19;19963;-33
2022/10/09 04:54:47;;;;;;;;;;;17.20;99.90;;;;;;4591207;19;20018;-36
2022/10/09 04:56:19;;;;;;;5.38;2.20;;;17.20;99.90;;;;;;4590851;19;19934;-38
2022/10/09 04:57:50;;;;;;;5.57;2.00;;;17.30;99.90;;;;;;4590492;19;20466;-36
2022/10/09 04:59:21;;;;;;;4.78;2.63;;;17.20;99.90;;;;;;4590110;19;20046;-36
2022/10/09 05:00:53;;;;;;;4.90;2.60;;;17.20;99.90;;;;;;4590567;19;20093;-35
2022/10/09 05:02:24;;;;;;;6.80;2.80;;;17.20;99.90;;;;;;4590423;19;20475;-34
2022/10/09 05:03:55;;;;;;;5.80;2.35;;;17.20;99.90;;;;;;4590305;19;20452;-34
2022/10/09 05:05:26;;;;;;;6.40;3.20;;;17.20;99.90;;;;;;4590214;19;20042;-35
2022/10/09 05:06:58;;;;;;;5.78;2.40;;;17.20;99.90;;;;;;4590937;19;20392;-39
2022/10/09 05:08:29;;;;;;;4.95;2.15;;;17.20;99.90;;;;;;4591699;19;20309;-34
2022/10/09 05:10:00;;;;;;;4.13;2.40;;;17.20;99.90;;;;;;4589731;19;20014;-39
2022/10/09 05:11:31;;;;;;;4.88;2.10;;;17.30;99.90;;;;;;4590888;19;20460;-40
2022/10/09 05:13:03;;;;;;;4.00;2.38;;;17.30;99.90;;;;;;4590619;19;20018;-34
2022/10/09 05:14:34;;;;;;;6.78;2.72;;;17.30;99.90;;;;;;4590427;19;20167;-35
2022/10/09 05:16:07;;;;;;;4.20;2.45;;;17.20;99.90;;;;;;4590481;19;20361;-34
2022/10/09 05:17:39;;;;;;;6.28;3.17;;;17.20;99.90;;;;;;4590592;19;20011;-35
2022/10/09 05:19:10;;;;;;;4.22;2.60;;;17.20;99.90;;;;;;4589310;19;20035;-37
2022/10/09 05:20:41;;;;;;;5.82;2.53;;;17.30;99.90;;;;;;4589948;19;20010;-38
2022/10/09 05:22:12;;;;;;;5.55;2.70;;;17.40;99.90;;;;;;4591013;19;20022;-36
2022/10/09 05:23:43;;;;;;;4.43;3.00;;;17.00;99.90;;;;;;4591806;19;20443;-39
2022/10/09 05:25:15;;;;;;;4.35;3.15;;;15.50;99.90;;;;;;4589392;19;20476;-33
2022/10/09 05:26:46;;;;;;;4.65;3.60;;;14.80;99.90;;;;;;4589647;19;20337;-36
2022/10/09 05:28:17;;;;;;;4.57;3.42;;;14.40;99.90;;;;;;4590041;19;20115;-35
2022/10/09 05:29:48;;;;;;;6.65;4.07;;;14.30;99.90;;;;;;4590789;19;20609;-38
2022/10/09 05:31:28;;;;;;;6.15;4.40;;;14.20;99.90;;;;;;4589531;19;20023;-35
2022/10/09 05:32:59;;;;;;;8.70;4.80;;;14.10;99.90;;;;;;4591361;19;20022;-39
2022/10/09 05:34:32;;;;;;;5.13;3.42;;;14.00;99.90;;;;;;4593877;19;20345;-33
2022/10/09 05:36:03;;;;;;;4.70;3.83;;;14.00;99.90;;;;;;4594994;19;20014;-33
2022/10/09 05:37:35;;;;;;;7.60;4.63;;;14.00;99.90;;;;;;4593618;19;20025;-36
2022/10/09 05:39:06;;;;;;;7.15;4.50;;;14.00;99.90;;;;;;4596202;19;20017;-40
2022/10/09 05:40:38;;;;;;;5.00;3.40;;;14.00;99.90;;;;;;4595312;19;20396;-36
2022/10/09 05:42:09;;;;;;;4.97;3.45;;;14.00;99.90;;;;;;4596021;19;20456;-33
2022/10/09 05:43:43;;;;;;;4.33;3.43;;;13.90;99.90;;;;;;4595393;19;20031;-36
2022/10/09 05:45:14;;;;;;;4.77;3.60;;;13.90;99.90;;;;;;4594805;19;20029;-38
2022/10/09 05:46:45;;;;;;;4.97;3.30;;;13.90;99.90;;;;;;4592903;19;20010;-34
2022/10/09 05:48:16;;;;;;;4.72;3.30;;;13.90;99.90;;;;;;4594007;19;20325;-35
2022/10/09 05:49:47;;;;;;;5.10;2.90;;;14.00;99.90;;;;;;4596035;19;20014;-42
2022/10/09 05:51:23;;;;;;;5.78;2.45;;;14.50;99.90;;;;;;4593512;19;20017;-36
2022/10/09 05:52:55;;;;;;;4.28;2.83;;;15.00;99.90;;;;;;4593741;19;20070;-36
2022/10/09 05:54:26;;;;;;;4.75;2.42;;;15.40;99.90;;;;;;4593110;19;20019;-34
2022/10/09 05:56:15;;;;;;;5.93;3.22;;;15.70;99.90;;;;;;4593791;19;20022;-34
2022/10/09 05:57:46;;;;;;;4.53;2.47;;;15.90;99.90;;;;;;4594451;19;20015;-34
2022/10/09 05:59:20;;;;;;;5.32;3.00;;;16.10;99.90;;;;;;4596139;19;20007;-34
2022/10/09 06:00:51;;;;;;;6.32;3.83;;;16.20;99.90;;;;;;4594370;19;20010;-35
2022/10/09 06:02:22;;;;;;;5.43;2.95;;;16.30;99.90;;;;;;4595203;19;20022;-39
2022/10/09 06:03:55;;;;;;;5.85;3.88;;;16.40;99.90;;;;;;4594584;19;20018;-33
2022/10/09 06:05:32;;;;;;;3.85;3.03;;;16.50;99.90;;;;;;4595127;19;20069;-34
2022/10/09 06:07:04;;;;;;;5.22;3.55;;;16.60;99.90;;;;;;4594221;19;20041;-38
2022/10/09 06:08:36;;;;;;;5.93;3.63;;;16.60;99.90;;;;;;4591150;19;20041;-36
2022/10/09 06:10:07;;;;;;;4.70;2.90;;;16.70;99.90;;;;;;4590477;19;20082;-35
2022/10/09 06:11:39;;;;;;;5.38;2.90;;;16.70;99.90;;;;;;4590481;19;20030;-38
2022/10/09 06:13:10;;;;;;;5.45;3.28;;;16.70;99.90;;;;;;4591788;19;20015;-40
2022/10/09 06:14:41;;;;;;;6.00;3.17;;;16.70;99.90;;;;;;4591723;19;20011;-37
2022/10/09 06:16:13;;;;;;;5.05;2.92;;;16.80;99.90;;;;;;4592710;19;20030;-33
2022/10/09 06:17:44;;;;;;;4.88;3.00;;;16.80;99.90;;;;;;4595864;19;20018;-39
2022/10/09 06:19:16;;;;;;;5.63;2.47;;;16.90;99.90;;;;;;4593597;19;20022;-34
2022/10/09 06:20:54;;;;;;;5.93;3.30;;;16.90;99.90;;;;;;4593560;19;20011;-36
2022/10/09 06:22:25;;;;;;;6.75;3.60;;;16.90;99.90;;;;;;4593316;19;20025;-35
2022/10/09 06:23:58;;;;;;;6.28;2.83;;;16.90;99.90;;;;;;4592595;19;20477;-38
2022/10/09 06:25:29;;;;;;;5.95;3.22;;;17.00;99.90;;;;;;4592907;19;20010;-34
2022/10/09 06:27:00;;;;;;;5.32;3.05;;;17.00;99.90;;;;;;4593464;19;20493;-33
2022/10/09 06:28:31;;;;;;;5.38;3.42;;;17.00;99.90;;;;;;4592864;19;20347;-36
2022/10/09 06:30:03;;;;;;;5.85;3.28;;;17.00;99.90;;;;;;4594939;19;20022;-35
2022/10/09 06:31:34;;;;;;;4.38;2.80;;;17.00;99.90;;;;;;4594443;19;20033;-34
2022/10/09 06:33:05;;;;;;;5.75;2.70;;;17.10;99.90;;;;;;4595213;19;20015;-40
2022/10/09 06:34:36;;;;;;;4.90;3.42;;;17.10;99.90;;;;;;4594261;19;20011;-37
2022/10/09 06:36:09;;;;;;;6.35;3.38;;;17.00;99.90;;;;;;4593029;19;20022;-40
2022/10/09 06:37:40;;;;;;;5.93;3.17;;;17.00;99.90;;;;;;4591913;19;20418;-38
2022/10/09 06:39:11;;;;;;;3.97;2.80;;;17.10;99.90;;;;;;4594972;19;20010;-39
2022/10/09 06:40:42;;;;;;;5.95;3.25;;;17.10;99.90;;;;;;4594479;19;20082;-35
2022/10/09 06:42:15;;;;;;;8.80;4.28;;;17.10;99.90;;;;;;4593985;19;20011;-36
2022/10/09 06:43:53;;;;;;;7.60;3.22;;;17.10;99.90;;;;;;4594662;19;20014;-35
2022/10/09 06:45:26;;;;;;;4.65;2.80;;;17.10;99.90;;;;;;4593894;19;20330;-39
2022/10/09 06:46:57;;;;;;;6.40;3.35;;;17.10;99.90;;;;;;4594606;19;20398;-35
2022/10/09 06:48:29;;;;;;;6.22;3.00;;;17.10;99.90;;;;;;4593399;19;20055;-36
2022/10/09 06:50:01;;;;;;;6.63;3.33;;;17.20;99.90;;;;;;4591382;19;20014;-37
2022/10/09 06:51:33;;;;;;;;;;;17.10;99.90;;;;;;4594282;19;20636;-35
2022/10/09 06:53:04;;;;;;;4.93;3.13;;;17.20;99.90;;;;;;4593351;19;19918;-36
2022/10/09 06:54:35;;;;;;;4.93;3.55;;;17.10;99.90;;;;;;4593305;19;20451;-38
2022/10/09 06:56:07;;;;;;;5.88;3.42;;;17.20;99.90;;;;;;4592504;19;20019;-32
2022/10/09 06:57:38;;;;;;;4.65;2.83;;;17.10;99.90;;;;;;4594281;19;20483;-34
2022/10/09 06:59:10;;;;;;;6.70;3.25;;;17.10;99.90;;;;;;4593330;19;20014;-35
2022/10/09 07:00:41;;;;;;;6.75;3.17;;;17.10;99.90;;;;;;4594721;19;20024;-38
2022/10/09 07:02:12;;;;;;;5.18;3.30;;;17.10;99.90;;;;;;4593164;19;20042;-36
2022/10/09 07:03:45;;;;;;;7.35;3.70;;;17.10;99.90;;;;;;4595015;19;20081;-32
2022/10/09 07:05:15;;;;;;;5.22;3.15;;;17.10;99.90;;;;;;4593562;19;20517;-33
2022/10/09 07:06:47;;;;;;;5.68;3.28;;;17.10;99.90;;;;;;4594053;19;20018;-35
2022/10/09 07:08:17;;;;;;;5.20;2.70;;;17.10;99.90;;;;;;4593306;19;20023;-34
2022/10/09 07:09:49;;;;;;;5.53;3.45;;;17.10;99.90;;;;;;4593140;19;20090;-34
2022/10/09 07:11:24;;;;;;;4.88;3.30;;;17.20;99.90;;;;;;4592830;19;20035;-40
2022/10/09 07:12:55;;;;;;;4.80;2.72;;;17.10;99.90;;;;;;4593328;19;20086;-39
2022/10/09 07:14:28;;;;;;;6.90;3.90;;;17.20;99.90;;;;;;4592931;19;20018;-36
2022/10/09 07:15:59;;;;;;;7.38;4.18;;;17.10;99.90;;;;;;4591411;19;20489;-36
2022/10/09 07:17:30;;;;;;;6.78;3.90;;;17.20;99.90;;;;;;4593421;19;20014;-41
2022/10/09 07:19:06;;;;;;;7.55;3.80;;;17.10;99.90;;;;;;4592266;19;20058;-33
2022/10/09 07:20:37;;;;;;;5.80;3.75;;;17.10;99.90;;;;;;4591163;19;20625;-33
2022/10/09 07:22:10;;;;;;;5.32;3.25;;;17.10;99.90;;;;;;4593914;19;20026;-34
2022/10/09 07:23:41;;;;;;;6.32;3.50;;;17.10;99.90;;;;;;4593118;19;20022;-39
2022/10/09 07:25:12;;;;;;;7.25;3.67;;;17.20;99.90;;;;;;4589842;19;20021;-40
2022/10/09 07:26:44;;;;;;;7.35;4.43;;;17.20;99.90;;;;;;4593028;19;20010;-37
2022/10/09 07:28:15;;;;;;;6.40;3.85;;;17.20;99.90;;;;;;4590954;19;20599;-39
2022/10/09 07:29:46;;;;;;;7.30;4.07;;;17.10;99.90;;;;;;4593025;19;20014;-33
2022/10/09 07:31:17;;;;;;;5.00;2.97;;;17.10;99.90;;;;;;4593553;19;20014;-32
2022/10/09 07:32:50;;;;;;;5.70;3.47;;;17.10;99.90;;;;;;4592838;19;20018;-34
2022/10/09 07:34:22;;;;;;;5.57;3.15;;;17.00;99.90;;;;;;4591255;19;20039;-33
2022/10/09 07:35:54;;;;;;;6.10;3.33;;;17.10;99.90;;;;;;4592991;19;20018;-35
2022/10/09 07:37:25;;;;;;;6.57;3.78;;;17.10;99.90;;;;;;4593224;19;20022;-38
2022/10/09 07:38:57;;;;;;;5.28;3.40;;;17.10;99.90;;;;;;4593666;19;20006;-36
2022/10/09 07:40:28;;;;;;;;;;;17.10;99.90;;;;;;4593354;19;20401;-39
2022/10/09 07:41:59;;;;;;;6.15;3.45;;;17.10;99.90;;;;;;4592370;19;19923;-32
2022/10/09 07:43:30;;;;;;;6.53;3.03;;;17.20;99.90;;;;;;4593762;19;20018;-41
2022/10/09 07:45:01;;;;;;;5.88;3.20;;;17.20;99.90;;;;;;4592555;19;20337;-33
2022/10/09 07:46:33;;;;;;;5.72;3.42;;;17.20;99.90;;;;;;4593006;19;20010;-34
2022/10/09 07:48:04;;;;;;;5.25;2.90;;;17.20;99.90;;;;;;4591138;19;20022;-32
2022/10/09 07:49:35;;;;;;;6.30;3.08;;;17.20;99.90;;;;;;4589301;19;20030;-36
2022/10/09 07:51:10;;;;;;;4.55;3.17;;;17.20;99.90;;;;;;4590593;19;20048;-33
2022/10/09 07:52:42;;;;;;;4.63;3.20;;;17.20;99.90;;;;;;4590093;19;20431;-32
2022/10/09 07:54:13;;;;;;;7.40;3.47;;;17.20;99.90;;;;;;4591959;19;20021;-35
2022/10/09 07:55:47;;;;;;;7.28;3.03;;;17.10;99.90;;;;;;4592426;19;20010;-39
2022/10/09 07:57:18;;;;;;;4.53;3.40;;;17.10;99.90;;;;;;4590336;19;20747;-35
2022/10/09 07:58:53;;;;;;;5.97;4.05;;;17.10;99.90;;;;;;4590854;19;20019;-37
2022/10/09 08:00:24;;;;;;;6.45;3.17;;;17.10;99.90;;;;;;4589859;19;20392;-33
2022/10/09 08:01:55;;;;;;;4.38;3.13;;;17.20;99.90;;;;;;4592036;19;20018;-40
2022/10/09 08:03:27;;;;;;;5.95;3.63;;;17.20;99.90;;;;;;4591153;19;20019;-33
2022/10/09 08:05:00;;;;;;;5.00;2.83;;;17.20;99.90;;;;;;4591018;19;20028;-32